createdAt,value
2024-02-24T00:00:51.969Z,96620.38
2024-02-24T00:03:22.941Z,96604.31
2024-02-24T00:05:50.499Z,96612.69
2024-02-24T00:08:17.285Z,96621.06
2024-02-24T00:10:51.731Z,96620.88
2024-02-24T00:13:18.233Z,96601.25
2024-02-24T00:15:44.727Z,96615.16
2024-02-24T00:18:11.884Z,96615.00
2024-02-24T00:20:38.475Z,96606.81
2024-02-24T00:23:05.168Z,96609.56
2024-02-24T00:25:31.738Z,96601.56
2024-02-24T00:27:58.474Z,96588.78
2024-02-24T00:30:27.409Z,96603.38
2024-02-24T00:32:54.161Z,96595.19
2024-02-24T00:35:20.911Z,96599.56
2024-02-24T00:37:47.391Z,96596.31
2024-02-24T00:40:18.687Z,96563.88
2024-02-24T00:42:45.171Z,96584.34
2024-02-24T00:45:18.972Z,96593.00
2024-02-24T00:47:45.962Z,96590.72
2024-02-24T00:50:12.543Z,96586.44
2024-02-24T00:52:39.038Z,96577.63
2024-02-24T00:55:05.982Z,96558.97
2024-02-24T00:57:32.596Z,96570.41
2024-02-24T00:59:59.128Z,96575.16
2024-02-24T01:02:25.994Z,96516.75
2024-02-24T01:04:53.761Z,96560.13
2024-02-24T01:07:20.344Z,96552.44
2024-02-24T01:09:46.940Z,96561.63
2024-02-24T01:12:13.486Z,96561.63
2024-02-24T01:14:40.384Z,96554.56
2024-02-24T01:17:09.899Z,96555.34
2024-02-24T01:19:36.577Z,96562.56
2024-02-24T01:22:03.230Z,96547.28
2024-02-24T01:24:30.158Z,96572.00
2024-02-24T01:26:56.799Z,96556.94
2024-02-24T01:29:23.374Z,96554.28
2024-02-24T01:31:49.945Z,96556.53
2024-02-24T01:34:16.695Z,96554.97
2024-02-24T01:36:43.242Z,96554.69
2024-02-24T01:39:10.283Z,96529.03
2024-02-24T01:41:36.881Z,96541.75
2024-02-24T01:44:03.360Z,96531.03
2024-02-24T01:46:30.163Z,96532.34
2024-02-24T01:48:56.916Z,96528.78
2024-02-24T01:51:23.961Z,96519.59
2024-02-24T01:53:50.649Z,96524.22
2024-02-24T01:56:17.969Z,96509.53
2024-02-24T01:58:45.079Z,96530.16
2024-02-24T02:01:11.946Z,96531.09
2024-02-24T02:03:38.649Z,96545.66
2024-02-24T02:06:06.040Z,96545.13
2024-02-24T02:08:32.917Z,96514.00
2024-02-24T02:10:59.537Z,96534.41
2024-02-24T02:13:26.558Z,96550.44
2024-02-24T02:15:58.049Z,96549.38
2024-02-24T02:18:25.932Z,96549.38
2024-02-24T02:20:53.284Z,96542.25
2024-02-24T02:23:20.667Z,96549.63
2024-02-24T02:25:47.329Z,96545.53
2024-02-24T02:28:13.973Z,96543.25
2024-02-24T02:30:40.637Z,96517.41
2024-02-24T02:33:10.785Z,96560.59
2024-02-24T02:35:38.431Z,96567.75
2024-02-24T02:38:09.393Z,96570.25
2024-02-24T02:40:36.953Z,96559.06
2024-02-24T02:43:03.741Z,96577.38
2024-02-24T02:45:31.464Z,96571.69
2024-02-24T02:47:58.060Z,96574.28
2024-02-24T02:50:25.200Z,96576.25
2024-02-24T02:52:55.203Z,96573.44
2024-02-24T02:55:22.153Z,96568.97
2024-02-24T02:57:50.266Z,96579.66
2024-02-24T03:00:17.192Z,96550.44
2024-02-24T03:02:45.433Z,96559.78
2024-02-24T03:05:12.729Z,96548.72
2024-02-24T03:07:39.402Z,96547.88
2024-02-24T03:10:07.028Z,96550.78
2024-02-24T03:12:34.060Z,96535.06
2024-02-24T03:15:09.796Z,96547.16
2024-02-24T03:17:36.777Z,96547.81
2024-02-24T03:20:04.850Z,96544.75
2024-02-24T03:22:34.411Z,96550.56
2024-02-24T03:25:01.085Z,96540.50
2024-02-24T03:27:27.814Z,96556.00
2024-02-24T03:29:54.413Z,96557.41
2024-02-24T03:32:21.413Z,96559.34
2024-02-24T03:34:47.955Z,96557.19
2024-02-24T03:37:14.772Z,96566.00
2024-02-24T03:39:41.404Z,96563.19
2024-02-24T03:42:07.913Z,96572.38
2024-02-24T03:44:34.773Z,96573.78
2024-02-24T03:47:01.518Z,96570.59
2024-02-24T03:49:28.476Z,96567.94
2024-02-24T03:51:55.047Z,96583.84
2024-02-24T03:54:22.976Z,96583.31
2024-02-24T03:56:51.444Z,96573.31
2024-02-24T03:59:18.112Z,96570.47
2024-02-24T04:01:44.933Z,96521.47
2024-02-24T04:04:11.609Z,96569.59
2024-02-24T04:06:38.367Z,96573.63
2024-02-24T04:09:05.105Z,96579.63
2024-02-24T04:11:33.863Z,96580.00
2024-02-24T04:14:00.596Z,96584.91
2024-02-24T04:16:27.178Z,96580.28
2024-02-24T04:18:54.828Z,96571.13
2024-02-24T04:21:23.652Z,96583.94
2024-02-24T04:23:52.885Z,96573.50
2024-02-24T04:26:19.426Z,96574.50
2024-02-24T04:28:45.909Z,96576.47
2024-02-24T04:31:12.424Z,96576.78
2024-02-24T04:33:39.821Z,96574.22
2024-02-24T04:36:08.222Z,96578.38
2024-02-24T04:38:35.183Z,96574.38
2024-02-24T04:41:01.835Z,96570.53
2024-02-24T04:43:28.520Z,96568.91
2024-02-24T04:45:55.041Z,96565.91
2024-02-24T04:48:22.027Z,96569.88
2024-02-24T04:50:48.655Z,96573.63
2024-02-24T04:53:15.312Z,96579.56
2024-02-24T04:55:41.993Z,96580.16
2024-02-24T04:58:08.473Z,96556.94
2024-02-24T05:00:35.079Z,96585.72
2024-02-24T05:03:01.684Z,96568.09
2024-02-24T05:05:28.258Z,96566.06
2024-02-24T05:07:54.842Z,96544.88
2024-02-24T05:10:21.390Z,96564.38
2024-02-24T05:12:52.022Z,96572.66
2024-02-24T05:15:19.166Z,96573.72
2024-02-24T05:17:46.169Z,96555.97
2024-02-24T05:20:16.382Z,96560.69
2024-02-24T05:22:43.072Z,96562.72
2024-02-24T05:25:10.776Z,96571.72
2024-02-24T05:27:37.992Z,96563.78
2024-02-24T05:30:05.500Z,96545.56
2024-02-24T05:32:32.135Z,96559.34
2024-02-24T05:34:58.985Z,96549.28
2024-02-24T05:37:25.569Z,96561.50
2024-02-24T05:39:53.339Z,96567.66
2024-02-24T05:42:20.483Z,96550.13
2024-02-24T05:44:47.196Z,96554.88
2024-02-24T05:47:13.865Z,96567.34
2024-02-24T05:49:41.611Z,96556.13
2024-02-24T05:52:08.173Z,96554.22
2024-02-24T05:54:34.680Z,96547.94
2024-02-24T05:57:05.681Z,96553.75
2024-02-24T05:59:32.395Z,96559.41
2024-02-24T06:01:58.893Z,96551.78
2024-02-24T06:04:25.528Z,96564.69
2024-02-24T06:06:52.223Z,96602.69
2024-02-24T06:09:18.801Z,96626.38
2024-02-24T06:11:45.423Z,96622.91
2024-02-24T06:14:11.954Z,96647.00
2024-02-24T06:16:38.891Z,96663.47
2024-02-24T06:19:05.487Z,96656.31
2024-02-24T06:21:33.278Z,96667.50
2024-02-24T06:23:59.809Z,96666.38
2024-02-24T06:26:26.362Z,96661.84
2024-02-24T06:28:53.188Z,96669.88
2024-02-24T06:31:21.318Z,96658.06
2024-02-24T06:33:48.110Z,96673.13
2024-02-24T06:36:14.730Z,96670.56
2024-02-24T06:38:41.653Z,96667.91
2024-02-24T06:41:08.656Z,96678.72
2024-02-24T06:43:36.698Z,96680.31
2024-02-24T06:46:03.593Z,96665.59
2024-02-24T06:48:30.243Z,96677.53
2024-02-24T06:50:57.208Z,96686.97
2024-02-24T06:53:23.802Z,96687.59
2024-02-24T06:55:50.413Z,96674.84
2024-02-24T06:58:17.255Z,96672.94
2024-02-24T07:00:44.078Z,96688.31
2024-02-24T07:03:10.742Z,96678.81
2024-02-24T07:05:37.336Z,96693.25
2024-02-24T07:08:04.400Z,96694.59
2024-02-24T07:10:33.901Z,96684.41
2024-02-24T07:13:01.106Z,96735.25
2024-02-24T07:15:27.690Z,96727.44
2024-02-24T07:17:54.371Z,96712.09
2024-02-24T07:20:23.384Z,96723.63
2024-02-24T07:22:50.161Z,96730.00
2024-02-24T07:25:17.602Z,96717.66
2024-02-24T07:27:44.266Z,96745.94
2024-02-24T07:30:11.214Z,96763.63
2024-02-24T07:32:40.557Z,96773.34
2024-02-24T07:35:09.403Z,96784.72
2024-02-24T07:37:36.076Z,96800.00
2024-02-24T07:40:02.680Z,96790.94
2024-02-24T07:42:30.073Z,96796.16
2024-02-24T07:44:56.647Z,96795.84
2024-02-24T07:47:23.171Z,96806.34
2024-02-24T07:49:52.113Z,96811.31
2024-02-24T07:52:20.008Z,96807.63
2024-02-24T07:54:47.090Z,96826.69
2024-02-24T07:57:14.043Z,96837.31
2024-02-24T07:59:40.591Z,96823.09
2024-02-24T08:02:07.138Z,96829.06
2024-02-24T08:04:34.186Z,96832.69
2024-02-24T08:07:00.984Z,96849.25
2024-02-24T08:09:27.517Z,96876.50
2024-02-24T08:11:54.205Z,96879.94
2024-02-24T08:14:20.785Z,96868.78
2024-02-24T08:16:48.035Z,96867.47
2024-02-24T08:19:14.631Z,96891.78
2024-02-24T08:21:41.174Z,96884.56
2024-02-24T08:24:11.169Z,96878.16
2024-02-24T08:26:41.207Z,96897.34
2024-02-24T08:29:10.742Z,96880.56
2024-02-24T08:31:47.056Z,96891.75
2024-02-24T08:34:14.264Z,96900.81
2024-02-24T08:36:41.612Z,96898.66
2024-02-24T08:39:08.224Z,96878.88
2024-02-24T08:41:38.110Z,96854.91
2024-02-24T08:44:05.507Z,96798.38
2024-02-24T08:46:32.413Z,96740.78
2024-02-24T08:48:59.664Z,96659.34
2024-02-24T08:51:29.333Z,96555.94
2024-02-24T08:53:56.415Z,96432.31
2024-02-24T08:56:24.233Z,96433.47
2024-02-24T08:58:51.035Z,96461.91
2024-02-24T09:01:18.496Z,96408.22
2024-02-24T09:03:46.350Z,96310.88
2024-02-24T09:06:13.071Z,96288.53
2024-02-24T09:08:39.826Z,96291.00
2024-02-24T09:11:06.559Z,96292.59
2024-02-24T09:13:33.275Z,96331.31
2024-02-24T09:16:00.018Z,96281.53
2024-02-24T09:18:27.713Z,96307.50
2024-02-24T09:20:56.001Z,96322.28
2024-02-24T09:23:23.022Z,96315.53
2024-02-24T09:25:49.879Z,96332.06
2024-02-24T09:28:16.401Z,96342.47
2024-02-24T09:30:42.936Z,96324.97
2024-02-24T09:33:09.660Z,96538.31
2024-02-24T09:35:36.298Z,96386.78
2024-02-24T09:38:02.818Z,96333.03
2024-02-24T09:40:29.999Z,96339.13
2024-02-24T09:43:06.724Z,96506.44
2024-02-24T09:45:49.845Z,96525.00
2024-02-24T09:48:19.521Z,96480.78
2024-02-24T09:50:47.674Z,96517.03
2024-02-24T09:53:14.277Z,96471.56
2024-02-24T09:55:44.313Z,96477.38
2024-02-24T09:58:12.435Z,96543.97
2024-02-24T10:00:44.362Z,96616.47
2024-02-24T10:03:11.618Z,96561.66
2024-02-24T10:05:41.134Z,96714.91
2024-02-24T10:08:07.882Z,96774.78
2024-02-24T10:10:34.332Z,96819.63
2024-02-24T10:13:03.958Z,96783.06
2024-02-24T10:15:30.955Z,96860.63
2024-02-24T10:17:59.019Z,96748.84
2024-02-24T10:20:26.373Z,96672.72
2024-02-24T10:22:55.098Z,96620.25
2024-02-24T10:25:21.726Z,96574.66
2024-02-24T10:27:48.728Z,96659.13
2024-02-24T10:30:15.897Z,96552.31
2024-02-24T10:32:43.541Z,96600.38
2024-02-24T10:35:10.783Z,96478.72
2024-02-24T10:37:56.297Z,96556.50
2024-02-24T10:40:24.231Z,96473.81
2024-02-24T10:42:51.496Z,96415.84
2024-02-24T10:45:20.420Z,96445.72
2024-02-24T10:47:52.105Z,96423.50
2024-02-24T10:50:20.662Z,96429.38
2024-02-24T10:52:49.173Z,96471.81
2024-02-24T10:55:23.395Z,96354.69
2024-02-24T10:57:53.377Z,96398.22
2024-02-24T11:00:33.167Z,96456.88
2024-02-24T11:03:00.978Z,96399.00
2024-02-24T11:05:32.017Z,96395.34
2024-02-24T11:07:58.996Z,96398.28
2024-02-24T11:10:33.639Z,96394.81
2024-02-24T11:13:02.719Z,96391.16
2024-02-24T11:15:29.336Z,96626.91
2024-02-24T11:18:00.235Z,96758.00
2024-02-24T11:20:40.314Z,96843.91
2024-02-24T11:23:30.828Z,96818.31
2024-02-24T11:26:23.353Z,96823.88
2024-02-24T11:29:03.150Z,96895.47
2024-02-24T11:31:33.042Z,96924.34
2024-02-24T11:34:05.541Z,96939.50
2024-02-24T11:36:33.270Z,96908.09
2024-02-24T11:39:00.679Z,96914.53
2024-02-24T11:41:30.818Z,96938.81
2024-02-24T11:43:57.417Z,96944.91
2024-02-24T11:46:24.400Z,96978.78
2024-02-24T11:48:55.460Z,96971.53
2024-02-24T11:51:25.177Z,96968.56
2024-02-24T11:53:53.728Z,96954.63
2024-02-24T11:56:20.697Z,96939.34
2024-02-24T11:58:47.577Z,96937.41
2024-02-24T12:01:15.392Z,96933.81
2024-02-24T12:03:49.400Z,96913.25
2024-02-24T12:06:16.777Z,96918.34
2024-02-24T12:08:44.433Z,96911.50
2024-02-24T12:11:12.058Z,96937.78
2024-02-24T12:13:39.356Z,96934.88
2024-02-24T12:16:06.139Z,96948.94
2024-02-24T12:18:34.611Z,96948.44
2024-02-24T12:21:01.566Z,96945.25
2024-02-24T12:23:30.297Z,96968.91
2024-02-24T12:25:58.070Z,96971.41
2024-02-24T12:28:25.012Z,96989.19
2024-02-24T12:30:53.056Z,96970.78
2024-02-24T12:33:19.866Z,96980.31
2024-02-24T12:35:49.082Z,96990.88
2024-02-24T12:38:19.018Z,96965.16
2024-02-24T12:40:46.085Z,96944.91
2024-02-24T12:43:13.046Z,96945.88
2024-02-24T12:45:41.188Z,96952.88
2024-02-24T12:48:09.099Z,96964.22
2024-02-24T12:50:36.612Z,96967.81
2024-02-24T12:53:08.128Z,96990.59
2024-02-24T12:55:34.926Z,96990.13
2024-02-24T12:58:01.761Z,96998.09
2024-02-24T13:00:28.569Z,96996.75
2024-02-24T13:02:57.472Z,96990.81
2024-02-24T13:05:24.558Z,96971.53
2024-02-24T13:07:53.037Z,96948.25
2024-02-24T13:10:20.768Z,96958.00
2024-02-24T13:12:47.556Z,96965.00
2024-02-24T13:15:14.104Z,96959.41
2024-02-24T13:17:40.816Z,96941.44
2024-02-24T13:20:07.856Z,96886.53
2024-02-24T13:22:40.077Z,96762.31
2024-02-24T13:25:09.526Z,96537.72
2024-02-24T13:27:39.777Z,96477.28
2024-02-24T13:30:08.401Z,96665.94
2024-02-24T13:32:35.537Z,96839.66
2024-02-24T13:35:02.713Z,96744.69
2024-02-24T13:37:29.399Z,96853.59
2024-02-24T13:39:56.261Z,97074.13
2024-02-24T13:42:23.217Z,97087.13
2024-02-24T13:44:49.805Z,97059.47
2024-02-24T13:47:17.055Z,97147.16
2024-02-24T13:49:44.019Z,97080.59
2024-02-24T13:52:10.551Z,97149.31
2024-02-24T13:54:38.180Z,97054.19
2024-02-24T13:57:05.424Z,97044.72
2024-02-24T13:59:32.148Z,97093.44
2024-02-24T14:01:59.163Z,97036.78
2024-02-24T14:04:26.658Z,97095.81
2024-02-24T14:06:53.325Z,97071.69
2024-02-24T14:09:20.081Z,97092.75
2024-02-24T14:11:46.693Z,97019.81
2024-02-24T14:14:14.022Z,97003.66
2024-02-24T14:16:45.405Z,97022.59
2024-02-24T14:19:13.015Z,96977.50
2024-02-24T14:21:39.895Z,96960.91
2024-02-24T14:24:06.894Z,96950.84
2024-02-24T14:26:34.347Z,96986.09
2024-02-24T14:29:02.507Z,97018.38
2024-02-24T14:31:30.750Z,96982.34
2024-02-24T14:33:57.688Z,96989.41
2024-02-24T14:36:24.342Z,97014.28
2024-02-24T14:38:52.427Z,96976.41
2024-02-24T14:41:19.121Z,97026.44
2024-02-24T14:43:47.990Z,97027.34
2024-02-24T14:46:14.699Z,97068.69
2024-02-24T14:48:41.352Z,97106.63
2024-02-24T14:51:07.939Z,97162.72
2024-02-24T14:53:34.644Z,97161.09
2024-02-24T14:56:01.746Z,97165.38
2024-02-24T14:58:28.470Z,97185.81
2024-02-24T15:00:55.219Z,97218.69
2024-02-24T15:03:21.902Z,97264.75
2024-02-24T15:05:48.637Z,97324.28
2024-02-24T15:08:15.528Z,97389.44
2024-02-24T15:10:42.150Z,97438.56
2024-02-24T15:13:08.756Z,97432.16
2024-02-24T15:15:35.855Z,97444.34
2024-02-24T15:18:07.381Z,97422.63
2024-02-24T15:20:34.437Z,97439.09
2024-02-24T15:23:00.964Z,97473.88
2024-02-24T15:25:27.630Z,97470.44
2024-02-24T15:27:54.291Z,97486.66
2024-02-24T15:30:22.201Z,97482.69
2024-02-24T15:32:55.461Z,97505.63
2024-02-24T15:35:22.742Z,97496.56
2024-02-24T15:37:49.333Z,97495.19
2024-02-24T15:40:16.165Z,97518.25
2024-02-24T15:42:42.757Z,97525.66
2024-02-24T15:45:09.964Z,97507.88
2024-02-24T15:47:37.152Z,97534.53
2024-02-24T15:50:03.941Z,97534.16
2024-02-24T15:52:30.508Z,97519.03
2024-02-24T15:54:57.059Z,97532.72
2024-02-24T15:57:23.905Z,97540.91
2024-02-24T15:59:50.552Z,97570.81
2024-02-24T16:02:17.129Z,97554.50
2024-02-24T16:04:43.654Z,97543.75
2024-02-24T16:07:10.507Z,97571.59
2024-02-24T16:09:37.428Z,97555.28
2024-02-24T16:12:05.242Z,97551.38
2024-02-24T16:14:31.886Z,97544.16
2024-02-24T16:16:58.552Z,97507.22
2024-02-24T16:19:25.121Z,97513.53
2024-02-24T16:21:51.733Z,97511.28
2024-02-24T16:24:19.789Z,97508.94
2024-02-24T16:26:49.700Z,97496.09
2024-02-24T16:29:17.377Z,97479.97
2024-02-24T16:31:43.942Z,97461.56
2024-02-24T16:34:11.346Z,97439.91
2024-02-24T16:36:40.322Z,97409.59
2024-02-24T16:39:11.068Z,97359.94
2024-02-24T16:41:39.164Z,97389.97
2024-02-24T16:44:09.604Z,97364.63
2024-02-24T16:46:43.095Z,97317.59
2024-02-24T16:49:10.365Z,97273.06
2024-02-24T16:51:38.022Z,97239.69
2024-02-24T16:54:05.665Z,97213.41
2024-02-24T16:56:33.369Z,97178.84
2024-02-24T16:59:01.105Z,97168.81
2024-02-24T17:01:28.795Z,97192.84
2024-02-24T17:03:55.592Z,97175.25
2024-02-24T17:06:22.601Z,97082.59
2024-02-24T17:08:50.011Z,97052.66
2024-02-24T17:11:21.001Z,97036.09
2024-02-24T17:13:48.382Z,97055.66
2024-02-24T17:16:15.218Z,97046.09
2024-02-24T17:18:42.322Z,97060.56
2024-02-24T17:21:10.198Z,97070.09
2024-02-24T17:23:42.565Z,97071.88
2024-02-24T17:26:10.190Z,97072.06
2024-02-24T17:28:36.747Z,97051.69
2024-02-24T17:31:03.918Z,97058.75
2024-02-24T17:33:30.577Z,97038.53
2024-02-24T17:35:57.597Z,97046.09
2024-02-24T17:38:27.046Z,97080.94
2024-02-24T17:40:53.802Z,97067.97
2024-02-24T17:43:21.269Z,97108.88
2024-02-24T17:45:48.168Z,97126.28
2024-02-24T17:48:15.935Z,97106.25
2024-02-24T17:50:42.756Z,97113.94
2024-02-24T17:53:09.940Z,97147.66
2024-02-24T17:55:36.421Z,97125.28
2024-02-24T17:58:06.175Z,97049.34
2024-02-24T18:00:32.813Z,97108.22
2024-02-24T18:02:59.531Z,97116.09
2024-02-24T18:05:26.845Z,97114.59
2024-02-24T18:07:56.461Z,97117.03
2024-02-24T18:10:26.657Z,97135.63
2024-02-24T18:12:53.695Z,97126.41
2024-02-24T18:15:20.588Z,97122.31
2024-02-24T18:17:47.392Z,97086.97
2024-02-24T18:20:14.080Z,97069.41
2024-02-24T18:22:43.881Z,97065.28
2024-02-24T18:25:11.741Z,97057.59
2024-02-24T18:27:38.385Z,97072.53
2024-02-24T18:30:06.919Z,97064.47
2024-02-24T18:32:34.099Z,97009.31
2024-02-24T18:35:00.733Z,96991.91
2024-02-24T18:37:27.276Z,96967.25
2024-02-24T18:39:55.953Z,96942.66
2024-02-24T18:42:24.578Z,96931.81
2024-02-24T18:44:51.407Z,96932.78
2024-02-24T18:47:18.130Z,96927.22
2024-02-24T18:49:44.742Z,96889.31
2024-02-24T18:52:12.951Z,96937.41
2024-02-24T18:54:39.550Z,96918.38
2024-02-24T18:57:06.179Z,96867.66
2024-02-24T18:59:32.793Z,96856.00
2024-02-24T19:01:59.371Z,96855.34
2024-02-24T19:04:26.192Z,96813.66
2024-02-24T19:06:55.888Z,96797.91
2024-02-24T19:09:22.437Z,96768.75
2024-02-24T19:11:53.673Z,96790.69
2024-02-24T19:14:24.094Z,96794.28
2024-02-24T19:16:51.964Z,96791.31
2024-02-24T19:19:18.715Z,96811.00
2024-02-24T19:21:46.358Z,96793.94
2024-02-24T19:24:13.065Z,96800.84
2024-02-24T19:26:40.553Z,96799.50
2024-02-24T19:29:07.380Z,96801.69
2024-02-24T19:31:36.085Z,96787.41
2024-02-24T19:34:04.317Z,96787.72
2024-02-24T19:36:35.936Z,96788.53
2024-02-24T19:39:13.568Z,96798.25
2024-02-24T19:41:45.638Z,96794.78
2024-02-24T19:44:13.485Z,96793.63
2024-02-24T19:46:40.049Z,96800.88
2024-02-24T19:49:09.441Z,96781.19
2024-02-24T19:51:36.469Z,96793.63
2024-02-24T19:54:04.506Z,96810.66
2024-02-24T19:56:32.945Z,96792.81
2024-02-24T19:58:59.695Z,96812.00
2024-02-24T20:01:26.360Z,96812.63
2024-02-24T20:03:53.006Z,96784.63
2024-02-24T20:06:19.807Z,96757.22
2024-02-24T20:08:46.548Z,96795.94
2024-02-24T20:11:13.466Z,96813.78
2024-02-24T20:13:40.144Z,96812.00
2024-02-24T20:16:06.952Z,96795.28
2024-02-24T20:18:33.647Z,96799.50
2024-02-24T20:21:00.603Z,96809.38
2024-02-24T20:23:28.552Z,96796.09
2024-02-24T20:25:58.017Z,96801.38
2024-02-24T20:28:24.609Z,96795.78
2024-02-24T20:30:51.458Z,96796.78
2024-02-24T20:33:19.131Z,96779.88
2024-02-24T20:35:45.816Z,96796.94
2024-02-24T20:38:12.559Z,96801.72
2024-02-24T20:40:40.446Z,96819.25
2024-02-24T20:43:08.407Z,96824.81
2024-02-24T20:45:35.188Z,96785.94
2024-02-24T20:48:01.899Z,96829.75
2024-02-24T20:50:29.394Z,96835.31
2024-02-24T20:52:55.892Z,96830.91
2024-02-24T20:55:22.853Z,96831.88
2024-02-24T20:57:49.837Z,96834.97
2024-02-24T21:00:17.659Z,96859.22
2024-02-24T21:02:44.848Z,96876.94
2024-02-24T21:05:11.729Z,96853.81
2024-02-24T21:07:38.212Z,96870.69
2024-02-24T21:10:05.253Z,96906.81
2024-02-24T21:12:32.120Z,96892.69
2024-02-24T21:14:59.221Z,96901.06
2024-02-24T21:17:25.938Z,96896.28
2024-02-24T21:19:53.275Z,96921.53
2024-02-24T21:22:21.231Z,96980.56
2024-02-24T21:24:48.111Z,97018.88
2024-02-24T21:27:14.644Z,97068.38
2024-02-24T21:29:41.745Z,97097.03
2024-02-24T21:32:08.357Z,97097.91
2024-02-24T21:34:35.230Z,97086.47
2024-02-24T21:37:02.632Z,97064.50
2024-02-24T21:39:29.497Z,97055.91
2024-02-24T21:41:56.200Z,97087.38
2024-02-24T21:44:22.864Z,97117.28
2024-02-24T21:46:49.392Z,97155.06
2024-02-24T21:49:20.899Z,97208.78
2024-02-24T21:51:47.815Z,97214.16
2024-02-24T21:54:19.111Z,97239.03
2024-02-24T21:56:51.791Z,97244.13
2024-02-24T21:59:18.338Z,97244.13
2024-02-24T22:01:44.847Z,97266.59
2024-02-24T22:04:12.668Z,97259.16
2024-02-24T22:06:39.500Z,97262.78
2024-02-24T22:09:06.522Z,97267.41
2024-02-24T22:11:36.588Z,97268.97
2024-02-24T22:14:04.044Z,97252.66
2024-02-24T22:16:30.646Z,97236.13
2024-02-24T22:18:57.295Z,97216.69
2024-02-24T22:21:24.431Z,97236.31
2024-02-24T22:23:51.977Z,97257.91
2024-02-24T22:26:19.008Z,97274.88
2024-02-24T22:28:46.065Z,97285.91
2024-02-24T22:31:13.054Z,97291.72
2024-02-24T22:33:39.689Z,97320.41
2024-02-24T22:36:06.991Z,97356.53
2024-02-24T22:38:33.999Z,97363.56
2024-02-24T22:41:06.029Z,97379.84
2024-02-24T22:43:32.996Z,97372.03
2024-02-24T22:45:59.515Z,97387.63
2024-02-24T22:48:27.493Z,97377.59
2024-02-24T22:50:54.191Z,97376.88
2024-02-24T22:53:21.246Z,97386.41
2024-02-24T22:55:48.134Z,97375.53
2024-02-24T22:58:14.677Z,97373.06
2024-02-24T23:00:41.580Z,97374.16
2024-02-24T23:03:08.186Z,97374.47
2024-02-24T23:05:34.795Z,97380.25
2024-02-24T23:08:04.008Z,97383.44
2024-02-24T23:10:30.754Z,97376.25
2024-02-24T23:12:57.234Z,97373.63
2024-02-24T23:15:23.782Z,97364.84
2024-02-24T23:17:50.446Z,97354.69
2024-02-24T23:20:17.154Z,97361.53
2024-02-24T23:22:43.684Z,97363.47
2024-02-24T23:25:10.178Z,97359.91
2024-02-24T23:27:36.708Z,97371.59
2024-02-24T23:30:03.368Z,97367.88
2024-02-24T23:32:30.381Z,97368.41
2024-02-24T23:34:56.963Z,97340.59
2024-02-24T23:37:23.757Z,97345.56
2024-02-24T23:39:50.325Z,97360.53
2024-02-24T23:42:18.438Z,97362.03
2024-02-24T23:44:45.354Z,97307.78
2024-02-24T23:47:15.788Z,97366.44
2024-02-24T23:49:45.522Z,97356.25
2024-02-24T23:52:13.066Z,97366.13
2024-02-24T23:54:42.140Z,97358.69
2024-02-24T23:57:08.677Z,97352.34
2024-02-24T23:59:39.343Z,97343.00
